Terminal Aerodrome Forecast
Issued by NWS

Current Version | Previous Version | Text Only | Print | Product List | Glossary On
Versions: 1 2 3 4 5 6 7 8 9 10 11 12 13 14 15 16
000
FTUS42 KTAE 112300
TAFVLD
TAF
KVLD 112320Z 1200/1224 00000KT P6SM SCT040 SCT250
     FM120900 00000KT 4SM BR SCT005 BKN025
     FM121400 14004KT P6SM FEW030
     FM121800 14005KT P6SM VCTS SCT035CB SCT250=

USA.gov is the U.S. government's official web portal to all federal, state and local government web resources and services.